createdAt,value
2018-07-22T00:00:32.464Z,98346.39
2018-07-22T00:03:03.332Z,98347.08
2018-07-22T00:05:34.222Z,98331.84
2018-07-22T00:08:06.089Z,98324.03
2018-07-22T00:10:37.268Z,98322.59
2018-07-22T00:13:07.867Z,98315.92
2018-07-22T00:15:37.939Z,98308.35
2018-07-22T00:18:08.698Z,98309.79
2018-07-22T00:20:40.121Z,98309.26
2018-07-22T00:23:10.693Z,98303.77
2018-07-22T00:25:41.377Z,98304.94
2018-07-22T00:28:12.709Z,98303.00
2018-07-22T00:30:42.810Z,98306.68
2018-07-22T00:33:13.346Z,98305.73
2018-07-22T00:35:44.057Z,98304.33
2018-07-22T00:38:14.703Z,98299.39
2018-07-22T00:40:45.301Z,98312.50
2018-07-22T00:43:15.887Z,98314.02
2018-07-22T00:45:46.948Z,98313.89
2018-07-22T00:48:18.179Z,98310.96
2018-07-22T00:50:48.619Z,98306.00
2018-07-22T00:53:19.272Z,98302.73
2018-07-22T00:55:49.768Z,98304.91
2018-07-22T00:58:20.414Z,98304.78
2018-07-22T01:00:50.973Z,98314.45
2018-07-22T01:03:21.627Z,98321.28
2018-07-22T01:05:52.839Z,98315.16
2018-07-22T01:08:23.923Z,98303.23
2018-07-22T01:10:54.342Z,98302.50
2018-07-22T01:13:24.956Z,98304.77
2018-07-22T01:15:55.697Z,98292.10
2018-07-22T01:18:26.537Z,98281.44
2018-07-22T01:20:57.330Z,98280.69
2018-07-22T01:23:28.133Z,98279.13
2018-07-22T01:25:59.728Z,98283.23
2018-07-22T01:28:30.522Z,98278.11
2018-07-22T01:31:01.409Z,98269.47
2018-07-22T01:33:31.937Z,98264.17
2018-07-22T01:36:02.342Z,98266.71
2018-07-22T01:38:32.785Z,98275.38
2018-07-22T01:41:03.331Z,98277.31
2018-07-22T01:43:34.284Z,98277.18
2018-07-22T01:46:06.073Z,98275.16
2018-07-22T01:48:36.185Z,98271.07
2018-07-22T01:51:06.735Z,98268.61
2018-07-22T01:53:37.364Z,98271.09
2018-07-22T01:56:08.007Z,98274.41
2018-07-22T01:58:38.611Z,98269.77
2018-07-22T02:01:09.184Z,98264.20
2018-07-22T02:03:40.172Z,98259.21
2018-07-22T02:06:11.219Z,98267.86
2018-07-22T02:08:41.790Z,98261.96
2018-07-22T02:11:12.395Z,98262.48
2018-07-22T02:13:45.725Z,98261.42
2018-07-22T02:16:16.158Z,98264.53
2018-07-22T02:18:46.562Z,98268.13
2018-07-22T02:21:17.886Z,98274.66
2018-07-22T02:23:49.105Z,98273.64
2018-07-22T02:26:20.185Z,98279.58
2018-07-22T02:28:50.694Z,98277.72
2018-07-22T02:31:21.313Z,98280.92
2018-07-22T02:33:51.766Z,98277.02
2018-07-22T02:36:22.321Z,98282.34
2018-07-22T02:38:52.993Z,98280.70
2018-07-22T02:41:24.205Z,98281.03
2018-07-22T02:43:55.134Z,98288.31
2018-07-22T02:46:25.941Z,98290.95
2018-07-22T02:48:56.375Z,98290.64
2018-07-22T02:51:26.815Z,98291.45
2018-07-22T02:53:57.358Z,98293.27
2018-07-22T02:56:27.990Z,98294.59
2018-07-22T02:58:58.089Z,98288.16
2018-07-22T03:01:30.232Z,98296.92
2018-07-22T03:04:00.431Z,98303.86
2018-07-22T03:06:32.459Z,98299.23
2018-07-22T03:09:03.299Z,98299.23
2018-07-22T03:11:33.774Z,98308.01
2018-07-22T03:14:04.206Z,98311.97
2018-07-22T03:16:34.744Z,98310.47
2018-07-22T03:19:05.665Z,98309.14
2018-07-22T03:21:37.075Z,98309.30
2018-07-22T03:24:07.846Z,98316.09
2018-07-22T03:26:38.457Z,98316.74
2018-07-22T03:29:09.099Z,98323.49
2018-07-22T03:31:39.616Z,98322.52
2018-07-22T03:34:11.078Z,98326.31
2018-07-22T03:36:41.814Z,98327.82
2018-07-22T03:39:13.131Z,98323.69
2018-07-22T03:41:43.821Z,98327.34
2018-07-22T03:44:14.291Z,98323.70
2018-07-22T03:46:44.939Z,98325.50
2018-07-22T03:49:15.331Z,98320.20
2018-07-22T03:51:45.914Z,98322.73
2018-07-22T03:54:17.231Z,98323.38
2018-07-22T03:56:48.174Z,98333.11
2018-07-22T03:59:19.539Z,98329.30
2018-07-22T04:01:50.187Z,98332.25
2018-07-22T04:04:21.268Z,98333.58
2018-07-22T04:06:52.138Z,98331.77
2018-07-22T04:09:23.312Z,98332.28
2018-07-22T04:11:53.983Z,98332.64
2018-07-22T04:14:24.645Z,98335.12
2018-07-22T04:16:56.687Z,98346.00
2018-07-22T04:19:27.482Z,98342.86
2018-07-22T04:21:58.180Z,98340.41
2018-07-22T04:24:28.609Z,98332.95
2018-07-22T04:26:59.279Z,98326.17
2018-07-22T04:29:29.748Z,98321.05
2018-07-22T04:32:00.293Z,98333.63
2018-07-22T04:34:31.548Z,98338.25
2018-07-22T04:37:03.217Z,98342.20
2018-07-22T04:39:33.863Z,98334.90
2018-07-22T04:42:04.533Z,98344.80
2018-07-22T04:44:35.176Z,98348.09
2018-07-22T04:47:05.734Z,98349.77
2018-07-22T04:49:36.336Z,98354.06
2018-07-22T04:52:06.920Z,98353.09
2018-07-22T04:54:38.599Z,98343.81
2018-07-22T04:57:09.409Z,98349.42
2018-07-22T04:59:40.072Z,98352.56
2018-07-22T05:02:10.715Z,98350.70
2018-07-22T05:04:41.260Z,98347.13
2018-07-22T05:07:11.859Z,98347.73
2018-07-22T05:09:42.307Z,98349.27
2018-07-22T05:12:12.933Z,98349.34
2018-07-22T05:14:44.370Z,98349.28
2018-07-22T05:17:15.549Z,98350.62
2018-07-22T05:19:46.111Z,98354.45
2018-07-22T05:22:16.709Z,98354.39
2018-07-22T05:24:47.176Z,98364.63
2018-07-22T05:27:17.729Z,98366.72
2018-07-22T05:29:48.309Z,98365.20
2018-07-22T05:32:19.418Z,98363.37
2018-07-22T05:34:50.944Z,98367.17
2018-07-22T05:37:21.541Z,98369.95
2018-07-22T05:39:51.658Z,98369.65
2018-07-22T05:42:22.181Z,98377.42
2018-07-22T05:44:53.079Z,98378.09
2018-07-22T05:47:23.632Z,98381.53
2018-07-22T05:49:54.279Z,98380.43
2018-07-22T05:52:25.538Z,98384.53
2018-07-22T05:54:57.484Z,98386.70
2018-07-22T05:57:27.980Z,98383.28
2018-07-22T05:59:58.437Z,98387.08
2018-07-22T06:02:29.239Z,98384.64
2018-07-22T06:04:59.897Z,98380.92
2018-07-22T06:07:38.734Z,98379.86
2018-07-22T06:10:10.092Z,98386.09
2018-07-22T06:12:40.704Z,98385.27
2018-07-22T06:15:11.426Z,98393.25
2018-07-22T06:17:42.249Z,98400.20
2018-07-22T06:20:12.830Z,98400.94
2018-07-22T06:22:44.499Z,98386.22
2018-07-22T06:25:15.571Z,98396.38
2018-07-22T06:27:46.082Z,98395.16
2018-07-22T06:30:16.740Z,98392.37
2018-07-22T06:32:47.541Z,98387.92
2018-07-22T06:35:17.687Z,98389.52
2018-07-22T06:37:48.293Z,98390.88
2018-07-22T06:40:18.981Z,98389.33
2018-07-22T06:42:50.296Z,98391.09
2018-07-22T06:45:23.012Z,98393.39
2018-07-22T06:47:54.107Z,98400.16
2018-07-22T06:50:24.855Z,98407.91
2018-07-22T06:52:55.501Z,98402.25
2018-07-22T06:55:26.992Z,98400.30
2018-07-22T06:57:58.644Z,98397.42
2018-07-22T07:00:34.959Z,98397.52
2018-07-22T07:03:06.625Z,98400.10
2018-07-22T07:05:37.261Z,98392.02
2018-07-22T07:08:07.641Z,98394.69
2018-07-22T07:10:38.603Z,98404.16
2018-07-22T07:13:09.318Z,98419.39
2018-07-22T07:15:39.444Z,98414.97
2018-07-22T07:18:11.180Z,98411.06
2018-07-22T07:20:42.255Z,98403.36
2018-07-22T07:23:13.620Z,98408.03
2018-07-22T07:25:45.450Z,98409.50
2018-07-22T07:28:16.166Z,98409.36
2018-07-22T07:30:47.763Z,98407.58
2018-07-22T07:33:18.462Z,98404.23
2018-07-22T07:35:50.232Z,98409.89
2018-07-22T07:38:21.187Z,98405.06
2018-07-22T07:40:52.132Z,98403.41
2018-07-22T07:43:23.172Z,98406.84
2018-07-22T07:45:53.875Z,98410.69
2018-07-22T07:48:24.663Z,98407.10
2018-07-22T07:50:55.304Z,98405.17
2018-07-22T07:53:26.808Z,98400.45
2018-07-22T07:55:58.045Z,98408.58
2018-07-22T07:58:28.872Z,98408.12
2018-07-22T08:00:59.510Z,98408.84
2018-07-22T08:03:30.291Z,98414.66
2018-07-22T08:06:01.041Z,98415.63
2018-07-22T08:08:31.987Z,98411.65
2018-07-22T08:11:02.625Z,98416.05
2018-07-22T08:13:34.044Z,98413.79
2018-07-22T08:16:05.386Z,98413.72
2018-07-22T08:18:36.919Z,98410.92
2018-07-22T08:21:08.350Z,98408.51
2018-07-22T08:23:41.664Z,98410.72
2018-07-22T08:26:12.499Z,98411.57
2018-07-22T08:29:24.247Z,98411.73
2018-07-22T08:31:57.758Z,98412.97
2018-07-22T08:34:28.691Z,98410.82
2018-07-22T08:37:00.181Z,98403.75
2018-07-22T08:39:32.345Z,98405.42
2018-07-22T08:42:03.568Z,98406.97
2018-07-22T08:44:35.042Z,98408.56
2018-07-22T08:47:06.719Z,98412.46
2018-07-22T08:49:38.414Z,98413.43
2018-07-22T08:52:08.843Z,98408.78
2018-07-22T08:54:39.854Z,98417.05
2018-07-22T08:57:10.420Z,98414.91
2018-07-22T08:59:41.049Z,98417.09
2018-07-22T09:02:11.904Z,98407.33
2018-07-22T09:04:42.712Z,98407.45
2018-07-22T09:07:14.182Z,98408.09
2018-07-22T09:09:45.176Z,98408.86
2018-07-22T09:12:15.784Z,98403.14
2018-07-22T09:14:46.541Z,98407.39
2018-07-22T09:17:16.947Z,98412.55
2018-07-22T09:19:47.670Z,98409.24
2018-07-22T09:22:18.389Z,98408.98
2018-07-22T09:24:49.621Z,98406.00
2018-07-22T09:27:21.247Z,98403.91
2018-07-22T09:29:52.077Z,98409.97
2018-07-22T09:32:22.735Z,98406.50
2018-07-22T09:34:54.413Z,98405.14
2018-07-22T09:37:25.053Z,98404.14
2018-07-22T09:39:55.954Z,98402.87
2018-07-22T09:42:27.042Z,98392.89
2018-07-22T09:45:00.243Z,98395.84
2018-07-22T09:47:32.704Z,98394.45
2018-07-22T09:50:04.542Z,98401.54
2018-07-22T09:52:35.107Z,98392.64
2018-07-22T09:55:05.985Z,98389.47
2018-07-22T09:57:36.956Z,98393.83
2018-07-22T10:00:10.565Z,98387.81
2018-07-22T10:02:43.098Z,98382.90
2018-07-22T10:05:14.017Z,98389.47
2018-07-22T10:07:45.732Z,98378.34
2018-07-22T10:10:16.909Z,98380.56
2018-07-22T10:12:48.176Z,98387.01
2018-07-22T10:15:20.221Z,98386.24
2018-07-22T10:17:52.549Z,98371.38
2018-07-22T10:20:24.064Z,98380.09
2018-07-22T10:22:54.857Z,98388.95
2018-07-22T10:25:26.795Z,98389.07
2018-07-22T10:27:57.817Z,98385.70
2018-07-22T10:30:30.497Z,98386.56
2018-07-22T10:33:01.676Z,98381.48
2018-07-22T10:35:33.412Z,98366.89
2018-07-22T10:38:05.630Z,98376.75
2018-07-22T10:40:37.939Z,98373.41
2018-07-22T10:43:08.794Z,98368.33
2018-07-22T10:45:39.529Z,98370.67
2018-07-22T10:48:10.379Z,98365.47
2018-07-22T10:50:41.298Z,98364.23
2018-07-22T10:53:13.051Z,98368.91
2018-07-22T10:55:44.056Z,98365.53
2018-07-22T10:58:14.742Z,98366.60
2018-07-22T11:00:46.063Z,98373.88
2018-07-22T11:03:16.827Z,98379.28
2018-07-22T11:05:47.689Z,98375.41
2018-07-22T11:08:19.014Z,98381.78
2018-07-22T11:10:50.256Z,98385.23
2018-07-22T11:13:21.718Z,98382.01
2018-07-22T11:15:52.948Z,98377.39
2018-07-22T11:18:30.720Z,98373.02
2018-07-22T11:21:01.349Z,98358.39
2018-07-22T11:23:32.063Z,98352.19
2018-07-22T11:26:03.534Z,98351.28
2018-07-22T11:28:35.220Z,98348.23
2018-07-22T11:31:06.072Z,98343.62
2018-07-22T11:33:36.814Z,98342.31
2018-07-22T11:36:07.514Z,98336.79
2018-07-22T11:38:39.299Z,98331.97
2018-07-22T11:41:10.109Z,98332.98
2018-07-22T11:43:40.937Z,98326.64
2018-07-22T11:46:12.422Z,98332.75
2018-07-22T11:48:43.841Z,98319.76
2018-07-22T11:51:14.783Z,98317.70
2018-07-22T11:53:45.595Z,98314.25
2018-07-22T11:56:16.963Z,98312.80
2018-07-22T11:58:48.456Z,98310.38
2018-07-22T12:01:19.505Z,98304.17
2018-07-22T12:03:51.492Z,98306.20
2018-07-22T12:06:23.486Z,98292.32
2018-07-22T12:08:55.045Z,98296.00
2018-07-22T12:11:25.583Z,98292.55
2018-07-22T12:13:57.096Z,98297.22
2018-07-22T12:16:27.685Z,98291.48
2018-07-22T12:18:59.514Z,98297.98
2018-07-22T12:21:32.095Z,98302.91
2018-07-22T12:24:04.233Z,98292.50
2018-07-22T12:26:36.385Z,98287.45
2018-07-22T12:29:08.222Z,98290.23
2018-07-22T12:31:40.986Z,98288.30
2018-07-22T12:34:13.853Z,98287.94
2018-07-22T12:36:48.815Z,98289.63
2018-07-22T12:39:21.708Z,98287.66
2018-07-22T12:41:53.411Z,98287.44
2018-07-22T12:44:24.519Z,98292.51
2018-07-22T12:46:56.315Z,98299.57
2018-07-22T12:49:28.866Z,98287.19
2018-07-22T12:52:01.547Z,98276.80
2018-07-22T12:54:33.289Z,98273.05
2018-07-22T12:57:05.960Z,98277.81
2018-07-22T12:59:37.692Z,98271.55
2018-07-22T13:02:09.685Z,98266.22
2018-07-22T13:04:41.924Z,98268.27
2018-07-22T13:07:15.924Z,98261.08
2018-07-22T13:09:50.622Z,98267.34
2018-07-22T13:12:23.001Z,98258.61
2018-07-22T13:14:57.222Z,98256.19
2018-07-22T13:17:29.966Z,98251.94
2018-07-22T13:20:02.865Z,98258.69
2018-07-22T13:22:34.566Z,98257.42
2018-07-22T13:25:06.772Z,98247.91
2018-07-22T13:27:38.891Z,98250.86
2018-07-22T13:30:11.303Z,98249.77
2018-07-22T13:32:45.466Z,98244.78
2018-07-22T13:35:19.198Z,98244.87
2018-07-22T13:37:51.068Z,98236.97
2018-07-22T13:40:24.001Z,98238.25
2018-07-22T13:42:57.694Z,98242.74
2018-07-22T13:45:30.810Z,98235.11
2018-07-22T13:48:02.819Z,98225.96
2018-07-22T13:50:34.868Z,98227.80
2018-07-22T13:53:07.276Z,98227.31
2018-07-22T13:55:38.942Z,98223.39
2018-07-22T13:58:11.055Z,98222.87
2018-07-22T14:00:43.094Z,98217.99
2018-07-22T14:03:16.056Z,98224.21
2018-07-22T14:05:48.084Z,98221.53
2018-07-22T14:08:20.240Z,98217.56
2018-07-22T14:10:52.518Z,98209.42
2018-07-22T14:13:24.065Z,98208.80
2018-07-22T14:15:55.957Z,98214.23
2018-07-22T14:18:29.217Z,98218.17
2018-07-22T14:21:01.289Z,98218.00
2018-07-22T14:23:33.229Z,98224.74
2018-07-22T14:26:05.613Z,98229.06
2018-07-22T14:28:36.615Z,98227.77
2018-07-22T14:31:08.398Z,98218.53
2018-07-22T14:33:41.784Z,98217.17
2018-07-22T14:36:13.993Z,98211.82
2018-07-22T14:38:47.042Z,98216.95
2018-07-22T14:41:18.870Z,98221.84
2018-07-22T14:43:50.461Z,98216.32
2018-07-22T14:46:22.178Z,98210.20
2018-07-22T14:48:55.077Z,98215.27
2018-07-22T14:51:27.465Z,98214.92
2018-07-22T14:53:59.150Z,98214.17
2018-07-22T14:56:31.583Z,98217.23
2018-07-22T14:59:03.464Z,98221.53
2018-07-22T15:01:35.506Z,98227.52
2018-07-22T15:04:08.020Z,98235.89
2018-07-22T15:06:39.648Z,98233.45
2018-07-22T15:09:11.333Z,98232.13
2018-07-22T15:11:42.733Z,98226.92
2018-07-22T15:14:14.224Z,98235.38
2018-07-22T15:16:45.353Z,98238.36
2018-07-22T15:19:16.832Z,98236.14
2018-07-22T15:21:48.822Z,98230.70
2018-07-22T15:24:20.183Z,98227.10
2018-07-22T15:26:51.338Z,98227.26
2018-07-22T15:29:22.881Z,98229.47
2018-07-22T15:31:54.139Z,98228.05
2018-07-22T15:34:25.050Z,98229.11
2018-07-22T15:36:57.839Z,98225.41
2018-07-22T15:39:30.195Z,98228.45
2018-07-22T15:42:01.835Z,98238.69
2018-07-22T15:44:33.801Z,98233.06
2018-07-22T15:47:05.531Z,98232.17
2018-07-22T15:49:37.753Z,98236.77
2018-07-22T15:52:10.426Z,98235.31
2018-07-22T15:54:44.430Z,98228.97
2018-07-22T15:57:18.267Z,98224.68
2018-07-22T15:59:50.322Z,98218.41
2018-07-22T16:02:22.116Z,98219.52
2018-07-22T16:04:54.772Z,98222.81
2018-07-22T16:07:27.933Z,98225.69
2018-07-22T16:09:59.754Z,98221.55
2018-07-22T16:12:31.615Z,98230.55
2018-07-22T16:15:03.459Z,98227.53
2018-07-22T16:17:35.202Z,98223.77
2018-07-22T16:20:07.349Z,98225.37
2018-07-22T16:22:40.888Z,98222.16
2018-07-22T16:25:13.125Z,98223.68
2018-07-22T16:27:44.762Z,98234.51
2018-07-22T16:30:16.905Z,98241.53
2018-07-22T16:32:48.685Z,98246.86
2018-07-22T16:35:24.632Z,98238.61
2018-07-22T16:37:57.255Z,98233.77
2018-07-22T16:40:28.696Z,98240.28
2018-07-22T16:43:00.240Z,98244.39
2018-07-22T16:45:31.962Z,98243.23
2018-07-22T16:48:03.631Z,98243.22
2018-07-22T16:50:35.363Z,98243.22
2018-07-22T16:53:07.196Z,98254.86
2018-07-22T16:55:43.726Z,98249.03
2018-07-22T16:58:14.782Z,98248.09
2018-07-22T17:00:47.640Z,98243.74
2018-07-22T17:03:19.619Z,98249.84
2018-07-22T17:05:52.801Z,98250.52
2018-07-22T17:08:25.711Z,98256.63
2018-07-22T17:10:57.505Z,98248.98
2018-07-22T17:13:31.027Z,98252.91
2018-07-22T17:16:06.006Z,98251.77
2018-07-22T17:18:37.557Z,98250.23
2018-07-22T17:21:11.241Z,98249.53
2018-07-22T17:23:43.194Z,98249.75
2018-07-22T17:26:14.980Z,98256.52
2018-07-22T17:28:46.902Z,98254.91
2018-07-22T17:31:19.083Z,98267.80
2018-07-22T17:33:50.801Z,98269.96
2018-07-22T17:36:25.239Z,98272.00
2018-07-22T17:38:57.653Z,98280.78
2018-07-22T17:41:29.143Z,98282.58
2018-07-22T17:44:00.843Z,98278.98
2018-07-22T17:46:32.482Z,98276.44
2018-07-22T17:49:04.243Z,98276.28
2018-07-22T17:51:36.211Z,98274.48
2018-07-22T17:54:08.487Z,98267.23
2018-07-22T17:56:40.269Z,98267.25
2018-07-22T17:59:11.231Z,98262.47
2018-07-22T18:01:43.876Z,98257.63
2018-07-22T18:04:15.849Z,98261.72
2018-07-22T18:06:48.144Z,98270.69
2018-07-22T18:09:21.937Z,98274.61
2018-07-22T18:11:54.003Z,98275.46
2018-07-22T18:14:26.676Z,98279.08
2018-07-22T18:16:58.841Z,98288.70
2018-07-22T18:19:30.601Z,98287.23
2018-07-22T18:22:03.567Z,98287.36
2018-07-22T18:24:35.450Z,98284.53
2018-07-22T18:27:06.554Z,98285.08
2018-07-22T18:29:38.508Z,98295.59
2018-07-22T18:32:11.490Z,98299.09
2018-07-22T18:34:43.324Z,98300.00
2018-07-22T18:37:17.566Z,98306.47
2018-07-22T18:39:50.571Z,98309.37
2018-07-22T18:42:23.337Z,98321.67
2018-07-22T18:44:58.670Z,98323.18
2018-07-22T18:47:31.696Z,98324.13
2018-07-22T18:50:04.483Z,98319.52
2018-07-22T18:52:37.178Z,98316.83
2018-07-22T18:55:08.943Z,98319.95
2018-07-22T18:57:40.943Z,98323.53
2018-07-22T19:00:14.198Z,98328.52
2018-07-22T19:02:46.448Z,98329.47
2018-07-22T19:05:19.876Z,98328.72
2018-07-22T19:07:51.514Z,98331.13
2018-07-22T19:10:24.659Z,98331.78
2018-07-22T19:12:57.173Z,98335.12
2018-07-22T19:15:31.053Z,98340.80
2018-07-22T19:18:04.041Z,98344.95
2018-07-22T19:20:36.481Z,98357.16
2018-07-22T19:23:10.138Z,98355.96
2018-07-22T19:25:43.477Z,98360.41
2018-07-22T19:28:15.768Z,98362.37
2018-07-22T19:30:48.374Z,98363.92
2018-07-22T19:33:22.245Z,98371.63
2018-07-22T19:35:55.917Z,98373.56
2018-07-22T19:38:28.649Z,98373.24
2018-07-22T19:41:00.968Z,98381.59
2018-07-22T19:43:33.251Z,98382.34
2018-07-22T19:46:05.252Z,98388.02
2018-07-22T19:48:37.628Z,98383.40
2018-07-22T19:51:10.202Z,98384.05
2018-07-22T19:53:41.999Z,98395.00
2018-07-22T19:56:13.862Z,98405.78
2018-07-22T19:58:45.797Z,98409.80
2018-07-22T20:01:19.819Z,98403.67
2018-07-22T20:03:52.470Z,98409.35
2018-07-22T20:06:24.998Z,98405.89
2018-07-22T20:08:56.821Z,98406.25
2018-07-22T20:11:29.506Z,98408.01
2018-07-22T20:14:03.275Z,98412.12
2018-07-22T20:16:37.534Z,98407.36
2018-07-22T20:19:09.748Z,98406.44
2018-07-22T20:21:42.455Z,98399.64
2018-07-22T20:24:16.103Z,98395.11
2018-07-22T20:26:48.937Z,98396.15
2018-07-22T20:29:23.206Z,98398.95
2018-07-22T20:31:55.448Z,98397.29
2018-07-22T20:34:27.843Z,98397.23
2018-07-22T20:36:59.639Z,98398.33
2018-07-22T20:39:31.707Z,98393.33
2018-07-22T20:42:04.790Z,98390.55
2018-07-22T20:44:37.635Z,98396.31
2018-07-22T20:47:09.541Z,98387.88
2018-07-22T20:49:41.261Z,98398.78
2018-07-22T20:52:13.030Z,98398.18
2018-07-22T20:54:45.960Z,98404.69
2018-07-22T20:57:19.124Z,98402.31
2018-07-22T20:59:50.969Z,98408.48
2018-07-22T21:02:21.931Z,98407.18
2018-07-22T21:04:53.661Z,98403.67
2018-07-22T21:07:26.056Z,98407.12
2018-07-22T21:09:57.663Z,98408.98
2018-07-22T21:12:54.443Z,98412.44
2018-07-22T21:15:26.039Z,98416.25
2018-07-22T21:17:57.765Z,98410.58
2018-07-22T21:20:29.253Z,98400.02
2018-07-22T21:23:00.309Z,98407.31
2018-07-22T21:25:31.517Z,98400.23
2018-07-22T21:28:02.757Z,98407.11
2018-07-22T21:30:34.178Z,98413.25
2018-07-22T21:33:05.398Z,98411.82
2018-07-22T21:35:40.191Z,98407.32
2018-07-22T21:38:11.476Z,98406.50
2018-07-22T21:40:47.646Z,98399.73
2018-07-22T21:43:18.344Z,98399.63
2018-07-22T21:45:51.808Z,98404.77
2018-07-22T21:48:22.745Z,98404.66
2018-07-22T21:50:54.451Z,98411.20
2018-07-22T21:53:26.688Z,98407.30
2018-07-22T21:55:57.301Z,98412.83
2018-07-22T21:58:28.362Z,98402.75
2018-07-22T22:00:59.122Z,98411.39
2018-07-22T22:03:29.898Z,98407.30
2018-07-22T22:06:00.664Z,98407.20
2018-07-22T22:08:31.591Z,98407.50
2018-07-22T22:11:03.072Z,98409.47
2018-07-22T22:13:34.395Z,98408.04
2018-07-22T22:16:05.112Z,98408.16
2018-07-22T22:18:35.756Z,98419.47
2018-07-22T22:21:07.008Z,98413.91
2018-07-22T22:23:37.547Z,98417.80
2018-07-22T22:26:08.231Z,98423.37
2018-07-22T22:28:39.053Z,98422.42
2018-07-22T22:31:10.495Z,98417.41
2018-07-22T22:33:40.499Z,98413.50
2018-07-22T22:36:11.038Z,98409.17
2018-07-22T22:38:41.553Z,98405.39
2018-07-22T22:41:11.982Z,98396.64
2018-07-22T22:43:42.658Z,98391.70
2018-07-22T22:46:13.202Z,98393.33
2018-07-22T22:48:44.003Z,98384.70
2018-07-22T22:51:15.586Z,98393.55
2018-07-22T22:53:46.140Z,98392.80
2018-07-22T22:56:17.229Z,98394.56
2018-07-22T22:59:04.763Z,98391.66
2018-07-22T23:01:36.457Z,98402.25
2018-07-22T23:04:07.098Z,98409.34
2018-07-22T23:06:37.401Z,98410.97
2018-07-22T23:09:11.708Z,98423.41
2018-07-22T23:11:42.651Z,98414.84
2018-07-22T23:14:13.372Z,98408.97
2018-07-22T23:16:44.382Z,98403.31
2018-07-22T23:19:15.882Z,98408.38
2018-07-22T23:21:46.183Z,98401.81
2018-07-22T23:24:16.890Z,98398.99
2018-07-22T23:26:47.452Z,98411.91
2018-07-22T23:29:18.151Z,98413.50
2018-07-22T23:31:48.815Z,98416.05
2018-07-22T23:34:19.017Z,98410.92
2018-07-22T23:36:49.741Z,98405.38
2018-07-22T23:39:21.491Z,98396.64
2018-07-22T23:41:51.716Z,98394.72
2018-07-22T23:44:23.213Z,98385.56
2018-07-22T23:46:53.064Z,98386.34
2018-07-22T23:49:23.745Z,98383.86
2018-07-22T23:51:54.311Z,98379.55
2018-07-22T23:54:24.953Z,98382.31
2018-07-22T23:56:55.814Z,98382.80
2018-07-22T23:59:27.161Z,98390.86
